createdAt,value
2022-09-09T00:02:06.093Z,99.90
2022-09-09T00:04:36.247Z,99.90
2022-09-09T00:07:08.464Z,99.90
2022-09-09T00:09:50.148Z,99.90
2022-09-09T00:12:23.387Z,99.90
2022-09-09T00:14:56.350Z,99.90
2022-09-09T00:17:37.404Z,99.90
2022-09-09T00:20:14.630Z,99.90
2022-09-09T00:22:49.823Z,99.90
2022-09-09T00:25:25.774Z,99.90
2022-09-09T00:27:53.770Z,99.90
2022-09-09T00:30:24.760Z,99.90
2022-09-09T00:32:59.200Z,99.90
2022-09-09T00:35:31.197Z,99.90
2022-09-09T00:38:03.687Z,99.90
2022-09-09T00:40:35.468Z,99.90
2022-09-09T00:43:31.075Z,99.90
2022-09-09T00:46:30.257Z,99.90
2022-09-09T00:49:07.606Z,99.90
2022-09-09T00:51:51.229Z,99.90
2022-09-09T00:54:34.085Z,99.90
2022-09-09T00:57:15.789Z,99.90
2022-09-09T00:59:50.201Z,99.90
2022-09-09T01:02:30.206Z,99.90
2022-09-09T01:05:07.403Z,99.90
2022-09-09T01:07:35.393Z,99.90
2022-09-09T01:10:09.138Z,99.90
2022-09-09T01:12:44.709Z,99.90
2022-09-09T01:15:17.329Z,99.90
2022-09-09T01:17:54.012Z,99.90
2022-09-09T01:20:26.576Z,99.90
2022-09-09T01:23:28.100Z,99.90
2022-09-09T01:26:17.480Z,99.90
2022-09-09T01:28:48.224Z,99.90
2022-09-09T01:31:23.849Z,99.90
2022-09-09T01:33:52.145Z,99.90
2022-09-09T01:36:28.181Z,99.90
2022-09-09T01:38:56.197Z,99.90
2022-09-09T01:41:25.599Z,99.90
2022-09-09T01:43:55.440Z,99.90
2022-09-09T01:46:24.515Z,99.90
2022-09-09T01:48:54.432Z,99.90
2022-09-09T01:51:22.516Z,99.90
2022-09-09T01:53:50.919Z,99.90
2022-09-09T01:56:32.312Z,99.90
2022-09-09T01:59:09.820Z,99.90
2022-09-09T02:01:49.228Z,99.90
2022-09-09T02:04:34.573Z,99.90
2022-09-09T02:07:02.647Z,99.90
2022-09-09T02:09:32.681Z,99.90
2022-09-09T02:12:08.206Z,99.90
2022-09-09T02:14:41.356Z,99.90
2022-09-09T02:17:12.110Z,99.90
2022-09-09T02:19:47.046Z,99.90
2022-09-09T02:22:15.512Z,99.90
2022-09-09T02:24:43.703Z,99.90
2022-09-09T02:27:14.139Z,99.90
2022-09-09T02:29:45.471Z,99.90
2022-09-09T02:32:17.082Z,99.90
2022-09-09T02:34:48.898Z,99.90
2022-09-09T02:37:20.657Z,99.90
2022-09-09T02:39:49.150Z,99.90
2022-09-09T02:42:18.715Z,99.90
2022-09-09T02:44:47.684Z,99.90
2022-09-09T02:47:37.663Z,99.90
2022-09-09T02:50:14.900Z,99.90
2022-09-09T02:52:57.235Z,99.90
2022-09-09T02:55:39.859Z,99.90
2022-09-09T02:58:12.496Z,99.90
2022-09-09T03:00:41.911Z,99.90
2022-09-09T03:03:11.208Z,99.90
2022-09-09T03:05:39.702Z,99.90
2022-09-09T03:08:07.823Z,99.90
2022-09-09T03:10:36.523Z,99.90
2022-09-09T03:13:05.303Z,99.90
2022-09-09T03:15:35.839Z,99.90
2022-09-09T03:18:04.335Z,99.90
2022-09-09T03:20:32.680Z,99.90
2022-09-09T03:23:02.544Z,99.90
2022-09-09T03:25:30.999Z,99.90
2022-09-09T03:27:59.207Z,99.90
2022-09-09T03:30:28.928Z,99.90
2022-09-09T03:32:58.817Z,99.90
2022-09-09T03:35:26.920Z,99.90
2022-09-09T03:37:56.375Z,99.90
2022-09-09T03:40:24.680Z,99.90
2022-09-09T03:42:52.707Z,99.90
2022-09-09T03:45:20.924Z,99.90
2022-09-09T03:47:48.916Z,99.90
2022-09-09T03:50:19.490Z,99.90
2022-09-09T03:52:48.372Z,99.90
2022-09-09T03:55:16.502Z,99.90
2022-09-09T03:57:44.526Z,99.90
2022-09-09T04:00:13.391Z,99.90
2022-09-09T04:02:41.498Z,99.90
2022-09-09T04:05:10.315Z,99.90
2022-09-09T04:07:39.730Z,99.90
2022-09-09T04:10:09.473Z,99.90
2022-09-09T04:12:37.426Z,99.90
2022-09-09T04:15:06.011Z,99.90
2022-09-09T04:17:34.160Z,99.90
2022-09-09T04:20:03.658Z,99.90
2022-09-09T04:22:31.740Z,99.90
2022-09-09T04:25:01.385Z,99.90
2022-09-09T04:27:30.139Z,99.90
2022-09-09T04:29:58.360Z,99.90
2022-09-09T04:32:28.186Z,99.90
2022-09-09T04:34:56.157Z,99.90
2022-09-09T04:37:25.854Z,99.90
2022-09-09T04:39:54.015Z,99.90
2022-09-09T04:42:23.866Z,99.90
2022-09-09T04:44:51.783Z,99.90
2022-09-09T04:47:19.794Z,99.90
2022-09-09T04:49:48.469Z,99.90
2022-09-09T04:52:18.268Z,99.90
2022-09-09T04:54:46.985Z,99.90
2022-09-09T04:57:18.661Z,99.90
2022-09-09T04:59:49.133Z,99.90
2022-09-09T05:02:17.424Z,99.90
2022-09-09T05:04:45.489Z,99.90
2022-09-09T05:07:15.017Z,99.90
2022-09-09T05:09:43.659Z,99.90
2022-09-09T05:12:12.103Z,99.90
2022-09-09T05:14:40.085Z,99.90
2022-09-09T05:17:09.415Z,99.90
2022-09-09T05:19:37.411Z,99.90
2022-09-09T05:22:05.966Z,99.90
2022-09-09T05:24:34.502Z,99.90
2022-09-09T05:27:03.509Z,99.90
2022-09-09T05:29:34.428Z,99.90
2022-09-09T05:32:02.899Z,99.90
2022-09-09T05:34:32.371Z,99.90
2022-09-09T05:37:00.421Z,99.90
2022-09-09T05:39:28.412Z,99.90
2022-09-09T05:41:56.571Z,99.90
2022-09-09T05:44:28.503Z,99.90
2022-09-09T05:46:56.711Z,99.90
2022-09-09T05:49:25.059Z,99.90
2022-09-09T05:51:54.747Z,99.90
2022-09-09T05:54:22.907Z,99.90
2022-09-09T05:56:52.322Z,99.90
2022-09-09T05:59:20.559Z,99.90
2022-09-09T06:01:48.788Z,99.90
2022-09-09T06:04:17.179Z,99.90
2022-09-09T06:06:45.130Z,99.90
2022-09-09T06:09:14.578Z,99.90
2022-09-09T06:11:42.659Z,99.90
2022-09-09T06:14:11.330Z,99.90
2022-09-09T06:16:39.755Z,99.90
2022-09-09T06:19:07.875Z,99.90
2022-09-09T06:21:38.193Z,99.90
2022-09-09T06:24:08.355Z,99.90
2022-09-09T06:26:40.122Z,99.90
2022-09-09T06:29:08.204Z,99.90
2022-09-09T06:31:38.579Z,99.90
2022-09-09T06:34:08.477Z,99.90
2022-09-09T06:36:37.894Z,99.90
2022-09-09T06:39:08.762Z,99.90
2022-09-09T06:41:40.390Z,99.90
2022-09-09T06:44:08.424Z,99.90
2022-09-09T06:46:36.794Z,99.90
2022-09-09T06:49:05.122Z,99.90
2022-09-09T06:51:35.619Z,99.90
2022-09-09T06:54:05.002Z,99.90
2022-09-09T06:56:35.066Z,99.90
2022-09-09T06:59:06.860Z,99.90
2022-09-09T07:01:37.143Z,99.90
2022-09-09T07:04:08.715Z,99.90
2022-09-09T07:06:39.825Z,99.90
2022-09-09T07:09:10.229Z,99.90
2022-09-09T07:11:40.930Z,99.90
2022-09-09T07:14:13.437Z,99.90
2022-09-09T07:16:41.673Z,99.90
2022-09-09T07:19:09.954Z,99.90
2022-09-09T07:21:37.925Z,99.90
2022-09-09T07:24:08.391Z,99.90
2022-09-09T07:26:37.038Z,99.90
2022-09-09T07:29:05.230Z,99.90
2022-09-09T07:31:36.329Z,99.90
2022-09-09T07:34:05.554Z,99.90
2022-09-09T07:36:34.893Z,99.90
2022-09-09T07:39:04.365Z,99.90
2022-09-09T07:41:35.321Z,99.90
2022-09-09T07:44:07.643Z,99.90
2022-09-09T07:46:38.059Z,99.90
2022-09-09T07:49:06.132Z,99.90
2022-09-09T07:51:36.133Z,99.90
2022-09-09T07:54:06.428Z,99.90
2022-09-09T07:56:35.316Z,99.90
2022-09-09T07:59:05.267Z,99.90
2022-09-09T08:01:40.009Z,99.90
2022-09-09T08:04:09.712Z,99.90
2022-09-09T08:06:40.369Z,99.90
2022-09-09T08:09:10.524Z,99.90
2022-09-09T08:11:39.539Z,99.90
2022-09-09T08:14:09.701Z,99.90
2022-09-09T08:16:41.408Z,99.90
2022-09-09T08:19:09.862Z,99.90
2022-09-09T08:21:40.991Z,99.90
2022-09-09T08:24:11.431Z,99.90
2022-09-09T08:26:42.496Z,99.90
2022-09-09T08:29:12.623Z,99.90
2022-09-09T08:31:43.582Z,99.90
2022-09-09T08:34:11.628Z,99.90
2022-09-09T08:36:43.393Z,99.90
2022-09-09T08:39:12.746Z,99.90
2022-09-09T08:42:01.740Z,99.90
2022-09-09T08:44:46.826Z,99.90
2022-09-09T08:47:25.002Z,99.90
2022-09-09T08:50:18.438Z,99.90
2022-09-09T08:52:54.594Z,99.90
2022-09-09T08:55:34.292Z,99.90
2022-09-09T08:58:11.934Z,99.90
2022-09-09T09:00:49.469Z,99.90
2022-09-09T09:03:27.963Z,99.90
2022-09-09T09:06:04.066Z,99.90
2022-09-09T09:08:39.941Z,99.90
2022-09-09T09:11:07.986Z,99.90
2022-09-09T09:13:43.985Z,99.90
2022-09-09T09:16:21.628Z,99.90
2022-09-09T09:18:52.143Z,99.90
2022-09-09T09:21:27.738Z,99.90
2022-09-09T09:23:59.177Z,99.90
2022-09-09T09:26:32.620Z,99.90
2022-09-09T09:29:04.061Z,99.90
2022-09-09T09:31:32.659Z,99.90
2022-09-09T09:34:03.500Z,99.90
2022-09-09T09:36:41.029Z,99.90
2022-09-09T09:42:06.410Z,99.90
2022-09-09T09:44:38.270Z,99.90
2022-09-09T09:47:13.472Z,99.90
2022-09-09T09:49:54.075Z,99.90
2022-09-09T09:52:25.913Z,99.90
2022-09-09T09:54:55.288Z,99.90
2022-09-09T09:57:30.104Z,99.90
2022-09-09T10:00:14.502Z,99.90
2022-09-09T10:02:45.072Z,99.90
2022-09-09T10:05:22.015Z,99.90
2022-09-09T10:08:05.115Z,99.90
2022-09-09T10:10:48.111Z,99.90
2022-09-09T10:13:22.188Z,99.90
2022-09-09T10:15:59.458Z,99.90
2022-09-09T10:18:44.020Z,99.90
2022-09-09T10:21:32.479Z,99.90
2022-09-09T10:24:27.675Z,99.90
2022-09-09T10:27:01.131Z,99.90
2022-09-09T10:29:45.424Z,99.90
2022-09-09T10:32:38.239Z,99.90
2022-09-09T10:35:24.879Z,99.90
2022-09-09T10:38:15.975Z,99.90
2022-09-09T10:40:52.468Z,99.90
2022-09-09T10:43:38.040Z,99.90
2022-09-09T10:46:11.922Z,99.90
2022-09-09T10:48:55.544Z,99.90
2022-09-09T10:51:35.688Z,99.90
2022-09-09T10:54:22.306Z,99.90
2022-09-09T10:56:57.653Z,99.90
2022-09-09T10:59:31.214Z,99.90
2022-09-09T11:02:04.700Z,99.90
2022-09-09T11:04:37.567Z,99.90
2022-09-09T11:07:12.133Z,99.90
2022-09-09T11:09:47.366Z,99.90
2022-09-09T11:12:21.274Z,99.90
2022-09-09T11:14:53.539Z,99.90
2022-09-09T11:17:26.195Z,99.90
2022-09-09T11:19:54.855Z,99.90
2022-09-09T11:22:30.426Z,99.90
2022-09-09T11:25:03.452Z,99.90
2022-09-09T11:27:38.325Z,99.90
2022-09-09T11:30:38.037Z,99.90
2022-09-09T11:33:39.721Z,99.90
2022-09-09T11:36:37.803Z,99.90
2022-09-09T11:39:25.940Z,99.90
2022-09-09T11:41:55.418Z,99.90
2022-09-09T11:44:30.432Z,99.90
2022-09-09T11:46:58.574Z,99.90
2022-09-09T11:49:30.170Z,99.90
2022-09-09T11:51:58.122Z,99.90
2022-09-09T11:54:33.497Z,99.90
2022-09-09T11:57:05.784Z,99.90
2022-09-09T11:59:35.134Z,99.90
2022-09-09T12:02:04.981Z,99.90
2022-09-09T12:04:37.784Z,99.90
2022-09-09T12:07:23.606Z,99.90
2022-09-09T12:09:57.477Z,99.90
2022-09-09T12:12:33.779Z,99.90
2022-09-09T12:15:34.480Z,99.90
2022-09-09T12:18:03.858Z,99.60
2022-09-09T12:20:37.795Z,99.30
2022-09-09T12:23:24.387Z,98.50
2022-09-09T12:26:23.854Z,97.70
2022-09-09T12:29:05.609Z,96.80
2022-09-09T12:31:39.084Z,96.60
2022-09-09T12:34:19.272Z,96.70
2022-09-09T12:36:54.126Z,96.60
2022-09-09T12:39:31.060Z,96.10
2022-09-09T12:41:59.466Z,95.50
2022-09-09T12:44:30.075Z,95.20
2022-09-09T12:47:01.341Z,95.30
2022-09-09T12:49:35.287Z,95.80
2022-09-09T12:52:06.907Z,96.10
2022-09-09T12:54:37.279Z,96.20
2022-09-09T12:57:08.647Z,96.50
2022-09-09T12:59:42.959Z,96.80
2022-09-09T13:02:23.206Z,96.90
2022-09-09T13:04:52.561Z,96.70
2022-09-09T13:07:21.340Z,96.00
2022-09-09T13:09:50.489Z,95.20
2022-09-09T13:12:21.758Z,94.50
2022-09-09T13:14:54.981Z,93.80
2022-09-09T13:17:25.123Z,93.60
2022-09-09T13:19:54.723Z,93.40
2022-09-09T13:22:33.935Z,93.10
2022-09-09T13:25:05.075Z,92.70
2022-09-09T13:27:35.544Z,92.20
2022-09-09T13:30:24.876Z,91.70
2022-09-09T13:33:18.322Z,91.00
2022-09-09T13:35:50.406Z,90.90
2022-09-09T13:38:19.078Z,90.80
2022-09-09T13:40:58.668Z,90.60
2022-09-09T13:43:27.883Z,90.60
2022-09-09T13:45:59.998Z,90.60
2022-09-09T13:48:28.330Z,90.50
2022-09-09T13:50:58.357Z,90.10
2022-09-09T13:53:26.531Z,90.00
2022-09-09T13:55:55.199Z,90.10
2022-09-09T13:58:23.843Z,89.90
2022-09-09T14:00:52.035Z,89.70
2022-09-09T14:03:21.910Z,89.70
2022-09-09T14:05:50.248Z,89.70
2022-09-09T14:08:24.665Z,89.50
2022-09-09T14:10:53.246Z,89.70
2022-09-09T14:13:22.113Z,89.60
2022-09-09T14:15:51.829Z,89.80
2022-09-09T14:18:21.521Z,90.00
2022-09-09T14:20:49.558Z,90.00
2022-09-09T14:23:18.126Z,90.10
2022-09-09T14:25:46.222Z,90.10
2022-09-09T14:28:15.304Z,89.90
2022-09-09T14:30:45.341Z,89.80
2022-09-09T14:33:15.589Z,89.60
2022-09-09T14:35:45.217Z,89.60
2022-09-09T14:38:18.312Z,90.00
2022-09-09T14:40:48.742Z,90.10
2022-09-09T14:43:16.697Z,90.20
2022-09-09T14:45:45.391Z,90.00
2022-09-09T14:48:14.126Z,90.00
2022-09-09T14:50:42.242Z,89.80
2022-09-09T14:53:12.008Z,89.30
2022-09-09T14:55:40.018Z,89.00
2022-09-09T14:58:08.206Z,88.70
2022-09-09T15:00:36.713Z,88.40
2022-09-09T15:03:04.861Z,88.00
2022-09-09T15:05:32.929Z,87.70
2022-09-09T15:08:00.997Z,87.10
2022-09-09T15:10:32.452Z,86.60
2022-09-09T15:13:00.454Z,86.40
2022-09-09T15:15:28.852Z,86.30
2022-09-09T15:17:56.908Z,86.20
2022-09-09T15:20:25.007Z,86.20
2022-09-09T15:22:53.848Z,86.60
2022-09-09T15:25:22.898Z,86.90
2022-09-09T15:27:52.229Z,87.00
2022-09-09T15:30:20.187Z,86.90
2022-09-09T15:32:48.217Z,87.00
2022-09-09T15:35:16.549Z,86.90
2022-09-09T15:37:44.490Z,86.80
2022-09-09T15:40:13.108Z,86.60
2022-09-09T15:42:41.143Z,86.70
2022-09-09T15:45:11.730Z,86.70
2022-09-09T15:47:40.388Z,86.50
2022-09-09T15:50:09.012Z,86.40
2022-09-09T15:52:36.984Z,86.50
2022-09-09T15:55:05.556Z,86.40
2022-09-09T15:57:34.108Z,86.20
2022-09-09T16:00:02.545Z,86.60
2022-09-09T16:02:32.215Z,87.50
2022-09-09T16:05:02.165Z,88.70
2022-09-09T16:07:30.127Z,89.50
2022-09-09T16:09:58.187Z,90.10
2022-09-09T16:12:26.126Z,90.50
2022-09-09T16:14:54.178Z,90.80
2022-09-09T16:17:22.191Z,91.20
2022-09-09T16:19:51.590Z,91.60
2022-09-09T16:22:19.930Z,91.90
2022-09-09T16:24:47.915Z,92.30
2022-09-09T16:27:16.200Z,92.60
2022-09-09T16:29:44.182Z,92.90
2022-09-09T16:32:12.174Z,93.20
2022-09-09T16:34:40.102Z,93.40
2022-09-09T16:37:09.558Z,93.50
2022-09-09T16:39:37.647Z,93.60
2022-09-09T16:42:06.427Z,93.70
2022-09-09T16:44:34.498Z,93.80
2022-09-09T16:47:02.533Z,94.00
2022-09-09T16:49:30.470Z,94.20
2022-09-09T16:52:00.988Z,94.60
2022-09-09T16:54:30.487Z,94.80
2022-09-09T16:56:58.575Z,95.10
2022-09-09T16:59:27.492Z,95.30
2022-09-09T17:01:55.785Z,95.60
2022-09-09T17:04:27.343Z,95.90
2022-09-09T17:06:56.911Z,96.40
2022-09-09T17:09:29.784Z,96.70
2022-09-09T17:11:59.768Z,97.00
2022-09-09T17:14:27.799Z,97.20
2022-09-09T17:16:55.810Z,97.50
2022-09-09T17:19:23.853Z,97.60
2022-09-09T17:22:16.697Z,97.80
2022-09-09T17:24:41.417Z,98.00
2022-09-09T17:27:10.756Z,98.10
2022-09-09T17:29:38.748Z,98.30
2022-09-09T17:32:08.125Z,98.50
2022-09-09T17:34:36.561Z,98.80
2022-09-09T17:37:06.919Z,99.00
2022-09-09T17:39:35.386Z,99.20
2022-09-09T17:42:03.627Z,99.40
2022-09-09T17:44:33.229Z,99.70
2022-09-09T17:47:01.709Z,99.90
2022-09-09T17:49:29.693Z,99.90
2022-09-09T17:51:58.480Z,99.90
2022-09-09T17:54:26.613Z,99.90
2022-09-09T17:56:54.597Z,99.90
2022-09-09T17:59:22.590Z,99.90
2022-09-09T18:01:53.025Z,99.90
2022-09-09T18:04:21.465Z,99.90
2022-09-09T18:06:51.246Z,99.90
2022-09-09T18:09:21.320Z,99.90
2022-09-09T18:11:54.348Z,99.90
2022-09-09T18:14:24.745Z,99.90
2022-09-09T18:16:54.718Z,99.90
2022-09-09T18:19:25.756Z,99.90
2022-09-09T18:21:57.452Z,99.90
2022-09-09T18:24:28.506Z,99.90
2022-09-09T18:26:56.484Z,99.90
2022-09-09T18:29:26.265Z,99.90
2022-09-09T18:31:56.562Z,99.90
2022-09-09T18:34:28.641Z,99.90
2022-09-09T18:36:56.873Z,99.90
2022-09-09T18:39:28.611Z,99.90
2022-09-09T18:41:58.980Z,99.90
2022-09-09T18:44:30.389Z,99.90
2022-09-09T18:47:00.328Z,99.90
2022-09-09T18:49:28.474Z,99.90
2022-09-09T18:51:57.015Z,99.90
2022-09-09T18:54:26.872Z,99.90
2022-09-09T18:56:55.355Z,99.90
2022-09-09T18:59:25.630Z,99.90
2022-09-09T19:01:55.139Z,99.90
2022-09-09T19:04:27.359Z,99.90
2022-09-09T19:06:58.222Z,99.90
2022-09-09T19:09:28.351Z,99.90
2022-09-09T19:11:56.516Z,99.90
2022-09-09T19:14:24.692Z,99.90
2022-09-09T19:16:52.760Z,99.90
2022-09-09T19:19:22.469Z,99.90
2022-09-09T19:21:52.299Z,99.90
2022-09-09T19:24:22.635Z,99.90
2022-09-09T19:26:52.250Z,99.90
2022-09-09T19:29:22.588Z,99.90
2022-09-09T19:32:29.398Z,99.90
2022-09-09T19:34:40.419Z,99.90
2022-09-09T19:37:10.259Z,99.90
2022-09-09T19:39:38.285Z,99.90
2022-09-09T19:42:06.314Z,99.90
2022-09-09T19:44:34.283Z,99.90
2022-09-09T19:47:03.076Z,99.90
2022-09-09T19:49:31.208Z,99.90
2022-09-09T19:51:59.332Z,99.90
2022-09-09T19:54:28.954Z,99.90
2022-09-09T19:56:57.023Z,99.90
2022-09-09T19:59:25.014Z,99.90
2022-09-09T20:01:53.117Z,99.90
2022-09-09T20:04:21.541Z,99.90
2022-09-09T20:06:49.614Z,99.90
2022-09-09T20:09:18.842Z,99.90
2022-09-09T20:11:49.518Z,99.90
2022-09-09T20:14:18.302Z,99.90
2022-09-09T20:16:46.722Z,99.90
2022-09-09T20:19:17.293Z,99.90
2022-09-09T20:21:48.405Z,99.90
2022-09-09T20:24:18.530Z,99.90
2022-09-09T20:26:48.967Z,99.90
2022-09-09T20:29:19.354Z,99.90
2022-09-09T20:31:47.733Z,99.90
2022-09-09T20:34:18.516Z,99.90
2022-09-09T20:36:47.140Z,99.90
2022-09-09T20:39:16.910Z,99.90
2022-09-09T20:41:47.700Z,99.90
2022-09-09T20:44:18.309Z,99.90
2022-09-09T20:46:49.042Z,99.90
2022-09-09T20:49:18.333Z,99.90
2022-09-09T20:51:46.949Z,99.90
2022-09-09T20:54:16.481Z,99.90
2022-09-09T20:56:46.439Z,99.90
2022-09-09T20:59:17.640Z,99.90
2022-09-09T21:01:47.466Z,99.90
2022-09-09T21:04:16.630Z,99.90
2022-09-09T21:06:44.763Z,99.90
2022-09-09T21:09:12.843Z,99.90
2022-09-09T21:11:40.910Z,99.90
2022-09-09T21:14:09.045Z,99.90
2022-09-09T21:16:38.429Z,99.90
2022-09-09T21:19:06.805Z,99.90
2022-09-09T21:21:36.220Z,99.90
2022-09-09T21:24:04.698Z,99.90
2022-09-09T21:26:32.701Z,99.90
2022-09-09T21:29:00.802Z,99.90
2022-09-09T21:31:29.043Z,99.90
2022-09-09T21:33:59.085Z,99.90
2022-09-09T21:36:28.166Z,99.90
2022-09-09T21:38:56.801Z,99.90
2022-09-09T21:41:24.881Z,99.90
2022-09-09T21:43:54.574Z,99.90
2022-09-09T21:46:26.471Z,99.90
2022-09-09T21:48:56.416Z,99.90
2022-09-09T21:51:26.203Z,99.90
2022-09-09T21:53:56.373Z,99.90
2022-09-09T21:56:24.704Z,99.90
2022-09-09T21:58:55.927Z,99.90
2022-09-09T22:01:26.279Z,99.90
2022-09-09T22:03:54.461Z,99.90
2022-09-09T22:06:22.474Z,99.90
2022-09-09T22:08:51.847Z,99.90
2022-09-09T22:11:22.261Z,99.90
2022-09-09T22:13:50.396Z,99.90
2022-09-09T22:16:20.573Z,99.90
2022-09-09T22:18:53.472Z,99.90
2022-09-09T22:21:22.101Z,99.90
2022-09-09T22:23:55.487Z,99.90
2022-09-09T22:26:24.071Z,99.90
2022-09-09T22:28:53.904Z,99.90
2022-09-09T22:31:22.834Z,99.90
2022-09-09T22:33:51.793Z,99.90
2022-09-09T22:36:20.045Z,99.90
2022-09-09T22:38:48.091Z,99.90
2022-09-09T22:41:18.890Z,99.90
2022-09-09T22:43:47.460Z,99.90
2022-09-09T22:46:16.598Z,99.90
2022-09-09T22:48:44.865Z,99.90
2022-09-09T22:51:14.867Z,99.90
2022-09-09T22:53:44.634Z,99.90
2022-09-09T22:56:17.141Z,99.90
2022-09-09T22:58:47.415Z,99.90
2022-09-09T23:01:19.275Z,99.90
2022-09-09T23:03:47.581Z,99.90
2022-09-09T23:06:22.375Z,99.90
2022-09-09T23:08:53.707Z,99.90
2022-09-09T23:11:21.739Z,99.90
2022-09-09T23:13:53.094Z,99.90
2022-09-09T23:16:22.782Z,99.90
2022-09-09T23:18:52.181Z,99.90
2022-09-09T23:21:20.739Z,99.90
2022-09-09T23:23:48.943Z,99.90
2022-09-09T23:26:20.947Z,99.90
2022-09-09T23:28:51.937Z,99.90
2022-09-09T23:31:22.757Z,99.90
2022-09-09T23:33:50.832Z,99.90
2022-09-09T23:36:21.973Z,99.90
2022-09-09T23:38:50.419Z,99.90
2022-09-09T23:41:21.136Z,99.90
2022-09-09T23:43:52.322Z,99.90
2022-09-09T23:46:22.939Z,99.90
2022-09-09T23:48:52.147Z,99.90
2022-09-09T23:51:23.827Z,99.90
2022-09-09T23:53:53.925Z,99.90
2022-09-09T23:56:23.115Z,99.90
2022-09-09T23:58:54.598Z,99.90
